Terminal Aerodrome Forecast
Issued by NWS Grand Forks, ND

Home | Current Version | Previous Version | Text Only | Print | Product List | Glossary On
Versions: 1 2 3 4 5 6 7 8 9 10 11 12 13 14 15
000
FTUS43 KFGF 130000 AAA
TAFGFK
TAF AMD
KGFK 130014Z 1300/1324 35020G36KT P6SM -RA FEW080 BKN090
     FM130300 32012KT P6SM SCT080
     FM131500 33017G25KT P6SM BKN080=

USA.gov is the U.S. government's official web portal to all federal, state and local government web resources and services.